Time;durP1;ratioP1;P1;durP2;ratioP2;P2;SDS_P1;SDS_P2;PMS_P1;PMS_P2;Temp;Humidity;BMP_temperature;BMP_pressure;BME280_temperature;BME280_humidity;BME280_pressure;Samples;Min_cycle;Max_cycle;Signal;HPM_P1;HPM_P2
2022/04/06 00:00:52;;;;;;;1.77;1.67;;;;;;;;;;5021208;28;20242;-70
2022/04/06 00:03:39;;;;;;;1.97;1.87;;;;;;;;;;5019573;28;20609;-70
2022/04/06 00:06:26;;;;;;;1.90;1.80;;;;;;;;;;5019441;28;20257;-70
2022/04/06 00:09:14;;;;;;;1.73;1.63;;;;;;;;;;5025036;28;20338;-69
2022/04/06 00:12:01;;;;;;;2.00;1.90;;;;;;;;;;5027266;28;20207;-70
2022/04/06 00:14:48;;;;;;;1.63;1.53;;;;;;;;;;5027849;28;20741;-70
2022/04/06 00:17:35;;;;;;;1.63;1.57;;;;;;;;;;5022409;28;20239;-70
2022/04/06 00:20:22;;;;;;;1.60;1.50;;;;;;;;;;5026263;28;20249;-70
2022/04/06 00:23:09;;;;;;;1.80;1.70;;;;;;;;;;5022362;28;20699;-70
2022/04/06 00:25:57;;;;;;;1.40;1.30;;;;;;;;;;5024166;28;20638;-69
2022/04/06 00:28:44;;;;;;;1.43;1.43;;;;;;;;;;5025912;28;20416;-70
2022/04/06 00:31:32;;;;;;;1.63;1.60;;;;;;;;;;5022049;28;20201;-70
2022/04/06 00:34:19;;;;;;;1.20;1.20;;;;;;;;;;5022205;28;20220;-70
2022/04/06 00:37:05;;;;;;;1.50;1.40;;;;;;;;;;5024784;28;20242;-70
2022/04/06 00:39:52;;;;;;;1.50;1.50;;;;;;;;;;5024927;28;20740;-70
2022/04/06 00:42:41;;;;;;;1.50;1.50;;;;;;;;;;5027161;28;20702;-70
2022/04/06 00:45:28;;;;;;;1.30;1.30;;;;;;;;;;5025504;28;20206;-70
2022/04/06 00:48:14;;;;;;;1.30;1.30;;;;;;;;;;5022180;28;20316;-70
2022/04/06 00:51:02;;;;;;;1.20;1.20;;;;;;;;;;5023416;28;20293;-70
2022/04/06 00:53:49;;;;;;;1.20;1.20;;;;;;;;;;5030562;28;20317;-70
2022/04/06 00:56:36;;;;;;;1.10;1.10;;;;;;;;;;5021922;28;20785;-70
2022/04/06 00:59:26;;;;;;;1.20;1.20;;;;;;;;;;5025229;28;20324;-69
2022/04/06 01:02:13;;;;;;;1.10;1.10;;;;;;;;;;5026173;28;20289;-70
2022/04/06 01:05:00;;;;;;;1.13;1.13;;;;;;;;;;5024116;28;20211;-70
2022/04/06 01:07:49;;;;;;;1.57;1.47;;;;;;;;;;5023639;28;20217;-70
2022/04/06 01:10:36;;;;;;;1.27;1.27;;;;;;;;;;5019259;28;20254;-70
2022/04/06 01:13:23;;;;;;;1.30;1.30;;;;;;;;;;5021389;28;20210;-70
2022/04/06 01:16:12;;;;;;;1.20;1.20;;;;;;;;;;5026654;28;20235;-70
2022/04/06 01:18:59;;;;;;;1.30;1.30;;;;;;;;;;5020272;28;20214;-70
2022/04/06 01:21:45;;;;;;;1.10;1.10;;;;;;;;;;5019476;28;20246;-70
2022/04/06 01:24:34;;;;;;;1.10;1.10;;;;;;;;;;5021483;28;20331;-70
2022/04/06 01:27:21;;;;;;;1.10;1.10;;;;;;;;;;5020809;28;20229;-70
2022/04/06 01:30:09;;;;;;;1.03;1.03;;;;;;;;;;5021634;28;20221;-70
2022/04/06 01:32:57;;;;;;;1.20;1.20;;;;;;;;;;5026316;28;20745;-70
2022/04/06 01:35:44;;;;;;;0.97;0.97;;;;;;;;;;5022192;28;20226;-69
2022/04/06 01:38:31;;;;;;;1.00;1.00;;;;;;;;;;5023250;28;20249;-70
2022/04/06 01:41:19;;;;;;;1.20;1.20;;;;;;;;;;5019332;28;20253;-70
2022/04/06 01:44:06;;;;;;;1.00;1.00;;;;;;;;;;5020995;28;20209;-70
2022/04/06 01:46:53;;;;;;;1.47;0.90;;;;;;;;;;5022836;28;20336;-70
2022/04/06 01:52:44;;;;;;;1.17;1.10;;;;;;;;;;5018731;28;20226;-70
2022/04/06 01:55:31;;;;;;;1.20;1.20;;;;;;;;;;5028819;28;20361;-70
2022/04/06 01:58:20;;;;;;;1.10;1.10;;;;;;;;;;5023965;28;20225;-70
2022/04/06 02:01:06;;;;;;;1.20;1.20;;;;;;;;;;5023725;28;20268;-70
2022/04/06 02:03:53;;;;;;;1.40;1.40;;;;;;;;;;5021452;28;20294;-70
2022/04/06 02:06:40;;;;;;;1.00;1.00;;;;;;;;;;5022864;28;20299;-68
2022/04/06 02:09:27;;;;;;;1.03;1.03;;;;;;;;;;5021838;28;20267;-70
2022/04/06 02:12:14;;;;;;;1.00;1.00;;;;;;;;;;5024511;28;20303;-70
2022/04/06 02:15:03;;;;;;;1.33;1.33;;;;;;;;;;5023344;28;20213;-70
2022/04/06 02:17:50;;;;;;;1.67;1.60;;;;;;;;;;5017017;28;20307;-70
2022/04/06 02:20:37;;;;;;;1.30;1.30;;;;;;;;;;5020229;28;20332;-70
2022/04/06 02:23:24;;;;;;;1.30;1.30;;;;;;;;;;5020318;28;20263;-70
2022/04/06 02:26:11;;;;;;;1.27;1.27;;;;;;;;;;5020507;28;20224;-70
2022/04/06 02:28:59;;;;;;;1.60;1.50;;;;;;;;;;5022685;28;20210;-70
2022/04/06 02:31:47;;;;;;;1.30;1.30;;;;;;;;;;5022205;28;20211;-70
2022/04/06 02:34:35;;;;;;;1.80;1.70;;;;;;;;;;5023736;28;20722;-70
2022/04/06 02:37:22;;;;;;;1.40;1.40;;;;;;;;;;5023220;28;20258;-70
2022/04/06 02:40:10;;;;;;;1.33;1.33;;;;;;;;;;5020080;28;20292;-70
2022/04/06 02:42:57;;;;;;;1.63;1.60;;;;;;;;;;5018992;28;20207;-70
2022/04/06 02:45:44;;;;;;;1.57;1.50;;;;;;;;;;5020182;28;20210;-70
2022/04/06 02:48:32;;;;;;;1.63;1.60;;;;;;;;;;5025174;28;20198;-70
2022/04/06 02:51:19;;;;;;;1.60;1.50;;;;;;;;;;5020247;28;20218;-70
2022/04/06 02:54:06;;;;;;;1.60;1.60;;;;;;;;;;5018183;28;20254;-70
2022/04/06 02:56:53;;;;;;;1.60;1.60;;;;;;;;;;5017991;28;20314;-70
2022/04/06 02:59:40;;;;;;;1.73;1.63;;;;;;;;;;5020356;28;20285;-70
2022/04/06 03:02:27;;;;;;;1.90;1.80;;;;;;;;;;5019587;28;20205;-70
2022/04/06 03:05:15;;;;;;;1.90;1.80;;;;;;;;;;5019170;28;20770;-70
2022/04/06 03:08:02;;;;;;;1.57;1.47;;;;;;;;;;5020441;28;20305;-70
2022/04/06 03:10:49;;;;;;;1.87;1.80;;;;;;;;;;5020406;28;20331;-70
2022/04/06 03:13:36;;;;;;;1.60;1.60;;;;;;;;;;5017732;28;20618;-70
2022/04/06 03:16:23;;;;;;;2.17;2.07;;;;;;;;;;5023381;28;20263;-70
2022/04/06 03:19:10;;;;;;;1.87;1.77;;;;;;;;;;5026347;28;20216;-69
2022/04/06 03:21:58;;;;;;;1.90;1.83;;;;;;;;;;5017036;28;20281;-69
2022/04/06 03:24:45;;;;;;;1.60;1.60;;;;;;;;;;5019436;28;20296;-69
2022/04/06 03:27:32;;;;;;;1.90;1.80;;;;;;;;;;5020993;28;20286;-70
2022/04/06 03:30:19;;;;;;;2.07;1.97;;;;;;;;;;5021735;28;20241;-70
2022/04/06 03:33:08;;;;;;;1.97;1.87;;;;;;;;;;5022429;28;20234;-70
2022/04/06 03:35:55;;;;;;;1.80;1.70;;;;;;;;;;5022012;28;20590;-70
2022/04/06 03:38:44;;;;;;;1.90;1.80;;;;;;;;;;5022242;28;20738;-70
2022/04/06 03:41:30;;;;;;;1.93;1.83;;;;;;;;;;5022707;28;20268;-70
2022/04/06 03:44:18;;;;;;;1.90;1.80;;;;;;;;;;5026136;28;20768;-70
2022/04/06 03:47:05;;;;;;;2.00;1.80;;;;;;;;;;5027621;28;20213;-70
2022/04/06 03:49:52;;;;;;;1.77;1.70;;;;;;;;;;5024004;28;20268;-70
2022/04/06 03:52:39;;;;;;;1.70;1.60;;;;;;;;;;5025276;28;20239;-70
2022/04/06 03:55:28;;;;;;;1.90;1.80;;;;;;;;;;5022600;28;20347;-69
2022/04/06 03:58:14;;;;;;;2.10;2.00;;;;;;;;;;5024009;28;20218;-70
2022/04/06 04:01:01;;;;;;;1.60;1.53;;;;;;;;;;5025612;28;20218;-70
2022/04/06 04:03:48;;;;;;;1.80;1.80;;;;;;;;;;5023279;28;20222;-70
2022/04/06 04:06:35;;;;;;;2.10;2.00;;;;;;;;;;5025105;28;20197;-70
2022/04/06 04:09:22;;;;;;;1.80;1.70;;;;;;;;;;5023931;28;20810;-70
2022/04/06 04:12:11;;;;;;;1.63;1.63;;;;;;;;;;5025072;28;20691;-70
2022/04/06 04:14:58;;;;;;;1.63;1.60;;;;;;;;;;5025268;28;20321;-70
2022/04/06 04:17:45;;;;;;;1.60;1.57;;;;;;;;;;5020930;28;20735;-70
2022/04/06 04:20:32;;;;;;;1.90;1.80;;;;;;;;;;5022430;28;20284;-70
2022/04/06 04:23:19;;;;;;;1.70;1.70;;;;;;;;;;5022891;28;20215;-70
2022/04/06 04:26:06;;;;;;;1.87;1.77;;;;;;;;;;5018921;28;20303;-70
2022/04/06 04:28:54;;;;;;;1.70;1.60;;;;;;;;;;5027674;28;21207;-70
2022/04/06 04:31:42;;;;;;;1.73;1.73;;;;;;;;;;5026931;28;20297;-70
2022/04/06 04:34:28;;;;;;;1.60;1.50;;;;;;;;;;5026705;28;20242;-69
2022/04/06 04:37:15;;;;;;;1.60;1.60;;;;;;;;;;5023222;28;20270;-70
2022/04/06 04:40:03;;;;;;;1.83;1.73;;;;;;;;;;5027194;28;20219;-70
2022/04/06 04:42:51;;;;;;;1.67;1.57;;;;;;;;;;5019454;28;20907;-70
2022/04/06 04:45:39;;;;;;;1.80;1.80;;;;;;;;;;5026816;28;20295;-70
2022/04/06 04:48:26;;;;;;;1.43;1.30;;;;;;;;;;5025342;28;20369;-70
2022/04/06 04:51:13;;;;;;;1.60;1.60;;;;;;;;;;5020785;28;20296;-70
2022/04/06 04:54:00;;;;;;;1.67;1.57;;;;;;;;;;5023940;28;20769;-70
2022/04/06 04:56:46;;;;;;;1.90;1.70;;;;;;;;;;5020386;28;20313;-70
2022/04/06 04:59:33;;;;;;;1.53;1.53;;;;;;;;;;5028050;28;20258;-70
2022/04/06 05:02:22;;;;;;;1.73;1.73;;;;;;;;;;5019511;28;20213;-70
2022/04/06 05:05:11;;;;;;;1.80;1.80;;;;;;;;;;5023968;28;20341;-70
2022/04/06 05:07:59;;;;;;;1.63;1.53;;;;;;;;;;5023937;28;20668;-69
2022/04/06 05:10:46;;;;;;;1.70;1.60;;;;;;;;;;5027197;28;20218;-70
2022/04/06 05:13:33;;;;;;;1.40;1.40;;;;;;;;;;5021872;28;20269;-70
2022/04/06 05:16:19;;;;;;;1.90;1.80;;;;;;;;;;5025821;28;20220;-70
2022/04/06 05:19:08;;;;;;;1.70;1.60;;;;;;;;;;5024593;28;20329;-70
2022/04/06 05:21:55;;;;;;;2.13;2.03;;;;;;;;;;5020305;28;20212;-70
2022/04/06 05:24:41;;;;;;;1.67;1.63;;;;;;;;;;5021714;28;20219;-70
2022/04/06 05:27:28;;;;;;;1.70;1.60;;;;;;;;;;5022194;28;20210;-70
2022/04/06 05:30:16;;;;;;;1.50;1.50;;;;;;;;;;5022700;28;20218;-70
2022/04/06 05:33:03;;;;;;;1.63;1.53;;;;;;;;;;5025108;28;20347;-70
2022/04/06 05:35:51;;;;;;;1.70;1.70;;;;;;;;;;5021955;28;20299;-70
2022/04/06 05:38:38;;;;;;;1.90;1.80;;;;;;;;;;5025370;28;20272;-70
2022/04/06 05:41:26;;;;;;;1.43;1.43;;;;;;;;;;5024332;28;20212;-70
2022/04/06 05:44:12;;;;;;;1.53;1.43;;;;;;;;;;5028330;28;20281;-69
2022/04/06 05:46:59;;;;;;;2.00;1.90;;;;;;;;;;5020492;28;20697;-70
2022/04/06 05:49:46;;;;;;;2.63;2.50;;;;;;;;;;5025711;28;20376;-70
2022/04/06 05:52:35;;;;;;;4.80;4.40;;;;;;;;;;5020608;28;20779;-70
2022/04/06 05:55:22;;;;;;;5.10;4.70;;;;;;;;;;5017907;28;20291;-70
2022/04/06 05:58:09;;;;;;;4.90;4.40;;;;;;;;;;5022178;28;20754;-70
2022/04/06 06:00:56;;;;;;;4.53;4.23;;;;;;;;;;5020080;28;20785;-70
2022/04/06 06:03:42;;;;;;;4.97;4.57;;;;;;;;;;5020506;28;20656;-70
2022/04/06 06:06:29;;;;;;;5.00;4.60;;;;;;;;;;5019690;28;20291;-70
2022/04/06 06:09:18;;;;;;;4.97;4.57;;;;;;;;;;5019833;28;20244;-70
2022/04/06 06:12:05;;;;;;;4.47;4.17;;;;;;;;;;5023428;28;20247;-70
2022/04/06 06:14:52;;;;;;;4.90;4.50;;;;;;;;;;5023318;28;20211;-70
2022/04/06 06:17:39;;;;;;;4.73;4.40;;;;;;;;;;5022820;28;20670;-69
2022/04/06 06:20:27;;;;;;;4.50;4.20;;;;;;;;;;5021873;28;20347;-70
2022/04/06 06:23:14;;;;;;;5.37;4.40;;;;;;;;;;5021520;28;20661;-70
2022/04/06 06:26:02;;;;;;;4.27;3.97;;;;;;;;;;5019098;28;20337;-70
2022/04/06 06:28:49;;;;;;;4.13;3.83;;;;;;;;;;5019858;28;20590;-70
2022/04/06 06:31:36;;;;;;;3.70;3.50;;;;;;;;;;5021568;28;20203;-70
2022/04/06 06:34:23;;;;;;;4.20;3.90;;;;;;;;;;5020040;28;20662;-70
2022/04/06 06:37:11;;;;;;;4.40;4.10;;;;;;;;;;5017656;28;20221;-70
2022/04/06 06:39:59;;;;;;;7.03;5.30;;;;;;;;;;5017016;28;20222;-70
2022/04/06 06:42:48;;;;;;;5.93;5.33;;;;;;;;;;5021492;28;20284;-69
2022/04/06 06:45:35;;;;;;;6.80;6.00;;;;;;;;;;5017333;28;20627;-70
2022/04/06 06:48:22;;;;;;;5.37;4.87;;;;;;;;;;5021401;28;20288;-69
2022/04/06 06:51:08;;;;;;;6.03;5.27;;;;;;;;;;5022648;28;20323;-70
2022/04/06 06:53:55;;;;;;;5.83;5.23;;;;;;;;;;5021453;28;20313;-69
2022/04/06 06:56:42;;;;;;;6.33;5.50;;;;;;;;;;5020198;28;20616;-70
2022/04/06 06:59:31;;;;;;;6.13;5.53;;;;;;;;;;5018817;28;20196;-70
2022/04/06 07:02:17;;;;;;;5.10;4.60;;;;;;;;;;5025961;28;20212;-70
2022/04/06 07:05:05;;;;;;;6.13;5.53;;;;;;;;;;5026875;28;20212;-70
2022/04/06 07:07:53;;;;;;;6.60;5.77;;;;;;;;;;5018475;28;20674;-70
2022/04/06 07:10:45;;;;;;;7.43;5.60;;;;;;;;;;5021197;28;20679;-70
2022/04/06 07:13:32;;;;;;;5.93;5.30;;;;;;;;;;5018802;28;20259;-70
2022/04/06 07:16:20;;;;;;;5.83;5.07;;;;;;;;;;5018077;28;20201;-70
2022/04/06 07:19:07;;;;;;;6.27;5.43;;;;;;;;;;5015107;28;20278;-70
2022/04/06 07:21:54;;;;;;;5.40;4.90;;;;;;;;;;5018940;28;20205;-70
2022/04/06 07:24:41;;;;;;;6.30;5.03;;;;;;;;;;5020800;28;20756;-70
2022/04/06 07:27:34;;;;;;;6.03;5.00;;;;;;;;;;5021788;28;20207;-69
2022/04/06 07:30:21;;;;;;;6.30;5.20;;;;;;;;;;5018832;28;20212;-70
2022/04/06 07:33:12;;;;;;;5.57;4.97;;;;;;;;;;5019580;28;20281;-70
2022/04/06 07:35:59;;;;;;;5.33;4.83;;;;;;;;;;5024741;28;20217;-70
2022/04/06 07:38:46;;;;;;;5.17;4.63;;;;;;;;;;5020525;28;20232;-70
2022/04/06 07:41:34;;;;;;;5.73;5.13;;;;;;;;;;5023009;28;20211;-70
2022/04/06 07:44:21;;;;;;;5.47;4.87;;;;;;;;;;5021802;28;20213;-70
2022/04/06 07:47:08;;;;;;;5.20;4.73;;;;;;;;;;5017328;28;20236;-70
2022/04/06 07:49:57;;;;;;;5.57;4.97;;;;;;;;;;5020415;28;20242;-70
2022/04/06 07:52:45;;;;;;;5.43;4.93;;;;;;;;;;5025981;28;20240;-70
2022/04/06 07:55:31;;;;;;;6.07;4.97;;;;;;;;;;5018730;28;20219;-70
2022/04/06 07:58:19;;;;;;;5.10;4.60;;;;;;;;;;5022456;28;20239;-70
2022/04/06 08:01:08;;;;;;;4.97;4.57;;;;;;;;;;5021895;28;20208;-70
2022/04/06 08:03:55;;;;;;;5.13;4.63;;;;;;;;;;5022171;28;20217;-69
2022/04/06 08:06:43;;;;;;;5.73;4.83;;;;;;;;;;5020205;28;20227;-70
2022/04/06 08:09:30;;;;;;;4.90;4.50;;;;;;;;;;5020283;28;20206;-70
2022/04/06 08:12:17;;;;;;;4.80;4.30;;;;;;;;;;5016862;28;20756;-70
2022/04/06 08:15:04;;;;;;;4.97;4.57;;;;;;;;;;5022092;28;20219;-70
2022/04/06 08:17:51;;;;;;;4.80;4.33;;;;;;;;;;5017716;28;20609;-70
2022/04/06 08:20:38;;;;;;;4.67;4.27;;;;;;;;;;5017385;28;20615;-70
2022/04/06 08:23:34;;;;;;;4.67;4.27;;;;;;;;;;5021004;28;20239;-70
2022/04/06 08:26:21;;;;;;;4.10;3.80;;;;;;;;;;5021282;28;20350;-70
2022/04/06 08:29:08;;;;;;;4.67;4.13;;;;;;;;;;5020876;28;20246;-70
2022/04/06 08:31:55;;;;;;;4.53;4.13;;;;;;;;;;5026162;28;20209;-70
2022/04/06 08:34:42;;;;;;;4.13;3.80;;;;;;;;;;5023884;28;20222;-70
2022/04/06 08:37:31;;;;;;;4.10;3.70;;;;;;;;;;5019717;28;20228;-70
2022/04/06 08:40:19;;;;;;;4.13;3.73;;;;;;;;;;5021030;28;20215;-70
2022/04/06 08:43:08;;;;;;;4.30;3.90;;;;;;;;;;5025933;28;20209;-70
2022/04/06 08:45:56;;;;;;;4.10;3.70;;;;;;;;;;5024712;28;20207;-70
2022/04/06 08:48:47;;;;;;;3.53;3.27;;;;;;;;;;5020295;28;20235;-70
2022/04/06 08:51:36;;;;;;;2.97;2.77;;;;;;;;;;4999394;28;20653;-70
2022/04/06 08:54:24;;;;;;;3.60;3.30;;;;;;;;;;4999610;28;20209;-70
2022/04/06 08:57:14;;;;;;;3.40;3.10;;;;;;;;;;5005532;28;20212;-70
2022/04/06 09:00:01;;;;;;;2.97;2.77;;;;;;;;;;5000711;28;20280;-70
2022/04/06 09:02:48;;;;;;;3.00;2.80;;;;;;;;;;4999715;28;20209;-70
2022/04/06 09:05:35;;;;;;;2.77;2.57;;;;;;;;;;4998790;28;20292;-70
2022/04/06 09:08:33;;;;;;;2.80;2.60;;;;;;;;;;5001546;28;20211;-70
2022/04/06 09:11:21;;;;;;;2.50;2.30;;;;;;;;;;5004155;28;20217;-69
2022/04/06 09:14:10;;;;;;;2.60;2.40;;;;;;;;;;5003343;28;20207;-70
2022/04/06 09:17:03;;;;;;;2.63;2.43;;;;;;;;;;5003756;28;20216;-70
2022/04/06 09:19:50;;;;;;;2.10;2.00;;;;;;;;;;5000834;28;20248;-70
2022/04/06 09:22:38;;;;;;;2.50;2.30;;;;;;;;;;5003821;28;20299;-70
2022/04/06 09:25:25;;;;;;;1.93;1.83;;;;;;;;;;4999202;28;20215;-69
2022/04/06 09:28:14;;;;;;;2.10;2.00;;;;;;;;;;5007356;28;20574;-70
2022/04/06 09:31:03;;;;;;;2.20;2.00;;;;;;;;;;5000627;28;20676;-70
2022/04/06 09:34:00;;;;;;;2.17;1.97;;;;;;;;;;5003705;28;20685;-70
2022/04/06 09:36:47;;;;;;;2.10;1.90;;;;;;;;;;5001495;28;20207;-70
2022/04/06 09:39:44;;;;;;;1.93;1.43;;;;;;;;;;5001648;28;20227;-69
2022/04/06 09:42:31;;;;;;;1.60;1.50;;;;;;;;;;5001810;28;20247;-70
2022/04/06 09:48:52;;;;;;;1.40;1.30;;;;;;;;;;5003639;28;20263;-70
2022/04/06 09:51:41;;;;;;;1.50;1.40;;;;;;;;;;5023959;28;20236;-69
2022/04/06 09:54:32;;;;;;;2.03;1.20;;;;;;;;;;5019612;28;20226;-70
2022/04/06 09:57:19;;;;;;;1.47;1.33;;;;;;;;;;5014573;28;20215;-70
2022/04/06 10:00:08;;;;;;;1.77;1.60;;;;;;;;;;5025038;28;20217;-69
2022/04/06 10:03:02;;;;;;;1.07;1.07;;;;;;;;;;5017907;28;20214;-69
2022/04/06 10:05:52;;;;;;;1.07;1.07;;;;;;;;;;5024663;28;20203;-69
2022/04/06 10:08:39;;;;;;;1.10;1.10;;;;;;;;;;5023579;28;20198;-69
2022/04/06 10:11:27;;;;;;;1.10;1.00;;;;;;;;;;5020417;28;20202;-70
2022/04/06 10:14:14;;;;;;;1.20;1.10;;;;;;;;;;5020015;28;20217;-69
2022/04/06 10:17:03;;;;;;;1.20;1.20;;;;;;;;;;5021035;28;20690;-69
2022/04/06 10:19:57;;;;;;;1.07;1.03;;;;;;;;;;5019625;28;20364;-69
2022/04/06 10:22:59;;;;;;;0.83;0.83;;;;;;;;;;5022007;28;20299;-69
2022/04/06 10:25:57;;;;;;;1.47;0.80;;;;;;;;;;5021984;28;20808;-69
2022/04/06 10:28:47;;;;;;;0.70;0.70;;;;;;;;;;5025658;28;20642;-69
2022/04/06 10:31:34;;;;;;;0.67;0.67;;;;;;;;;;5023920;28;20280;-70
2022/04/06 10:34:24;;;;;;;0.80;0.80;;;;;;;;;;5021913;28;20576;-69
2022/04/06 10:37:12;;;;;;;1.00;0.93;;;;;;;;;;5021596;28;20669;-70
2022/04/06 10:40:01;;;;;;;0.77;0.77;;;;;;;;;;5021584;28;20227;-69
2022/04/06 10:42:48;;;;;;;0.90;0.90;;;;;;;;;;5020627;28;20564;-69
2022/04/06 10:45:36;;;;;;;0.70;0.70;;;;;;;;;;5026241;28;20209;-69
2022/04/06 10:48:23;;;;;;;0.80;0.80;;;;;;;;;;5020137;28;20198;-69
2022/04/06 10:51:29;;;;;;;0.60;0.60;;;;;;;;;;5022353;28;20239;-69
2022/04/06 10:54:44;;;;;;;0.83;0.83;;;;;;;;;;5018893;28;20248;-69
2022/04/06 10:57:58;;;;;;;0.60;0.60;;;;;;;;;;5024865;28;20213;-69
2022/04/06 11:01:16;;;;;;;0.70;0.70;;;;;;;;;;5020501;28;20287;-69
2022/04/06 11:04:05;;;;;;;0.63;0.63;;;;;;;;;;5024060;28;20217;-69
2022/04/06 11:06:59;;;;;;;1.07;0.80;;;;;;;;;;5021950;28;20213;-69
2022/04/06 11:12:59;;;;;;;0.70;0.50;;;;;;;;;;5023852;28;20213;-69
2022/04/06 11:15:52;;;;;;;0.73;0.60;;;;;;;;;;5022276;28;20264;-69
2022/04/06 11:18:48;;;;;;;0.60;0.60;;;;;;;;;;5020517;28;20233;-69
2022/04/06 11:21:35;;;;;;;0.60;0.60;;;;;;;;;;5023331;28;20599;-70
2022/04/06 11:24:24;;;;;;;0.90;0.60;;;;;;;;;;5019803;28;20210;-69
2022/04/06 11:27:26;;;;;;;0.80;0.80;;;;;;;;;;5020656;28;20213;-69
2022/04/06 11:30:15;;;;;;;0.87;0.60;;;;;;;;;;5022773;28;20680;-70
2022/04/06 11:33:04;;;;;;;0.57;0.57;;;;;;;;;;5024450;28;20225;-70
2022/04/06 11:35:52;;;;;;;0.60;0.60;;;;;;;;;;5017540;28;20679;-69
2022/04/06 11:38:40;;;;;;;0.60;0.60;;;;;;;;;;5023450;28;20229;-68
2022/04/06 11:41:42;;;;;;;0.57;0.57;;;;;;;;;;5023241;28;20214;-70
2022/04/06 11:44:29;;;;;;;0.60;0.60;;;;;;;;;;5023972;28;20217;-69
2022/04/06 11:47:15;;;;;;;0.47;0.47;;;;;;;;;;5019814;28;20612;-70
2022/04/06 11:50:05;;;;;;;0.67;0.67;;;;;;;;;;5013973;28;20267;-70
2022/04/06 11:52:54;;;;;;;0.40;0.40;;;;;;;;;;5001694;28;20618;-70
2022/04/06 11:55:43;;;;;;;0.67;0.67;;;;;;;;;;4992423;28;20252;-70
2022/04/06 11:58:32;;;;;;;0.57;0.57;;;;;;;;;;4996474;28;20239;-70
2022/04/06 12:01:26;;;;;;;0.53;0.53;;;;;;;;;;5004511;28;20216;-70
2022/04/06 12:04:14;;;;;;;0.50;0.50;;;;;;;;;;5001285;28;20207;-70
2022/04/06 12:07:01;;;;;;;0.60;0.60;;;;;;;;;;5001090;28;20733;-69
2022/04/06 12:09:51;;;;;;;0.60;0.60;;;;;;;;;;5004226;28;20272;-70
2022/04/06 12:12:38;;;;;;;0.57;0.50;;;;;;;;;;5002989;28;20297;-70
2022/04/06 12:15:25;;;;;;;0.50;0.50;;;;;;;;;;5006309;28;20601;-70
2022/04/06 12:18:13;;;;;;;0.53;0.53;;;;;;;;;;5003828;28;20690;-70
2022/04/06 12:21:00;;;;;;;0.67;0.67;;;;;;;;;;5005509;28;20334;-70
2022/04/06 12:23:48;;;;;;;0.60;0.60;;;;;;;;;;5006283;28;20208;-70
2022/04/06 12:26:42;;;;;;;0.40;0.40;;;;;;;;;;5005499;28;20213;-70
2022/04/06 12:29:29;;;;;;;0.50;0.50;;;;;;;;;;5001766;28;20211;-70
2022/04/06 12:32:16;;;;;;;0.63;0.53;;;;;;;;;;5007142;28;20593;-70
2022/04/06 12:35:17;;;;;;;0.50;0.50;;;;;;;;;;5002594;28;20725;-70
2022/04/06 12:38:05;;;;;;;0.40;0.40;;;;;;;;;;5003135;28;20239;-68
2022/04/06 12:41:04;;;;;;;0.40;0.40;;;;;;;;;;5008393;28;20249;-70
2022/04/06 12:43:53;;;;;;;0.50;0.50;;;;;;;;;;5006914;28;20687;-70
2022/04/06 12:46:41;;;;;;;0.87;0.40;;;;;;;;;;5007852;28;20694;-70
2022/04/06 12:49:32;;;;;;;0.47;0.47;;;;;;;;;;5012643;28;20702;-70
2022/04/06 12:52:21;;;;;;;0.43;0.43;;;;;;;;;;5020946;28;20241;-70
2022/04/06 12:55:10;;;;;;;0.67;0.67;;;;;;;;;;5017926;28;20241;-70
2022/04/06 12:58:14;;;;;;;0.70;0.70;;;;;;;;;;5026400;28;20697;-70
2022/04/06 13:01:03;;;;;;;0.50;0.50;;;;;;;;;;5026850;28;20232;-71
2022/04/06 13:03:57;;;;;;;0.50;0.50;;;;;;;;;;5016703;28;20210;-70
2022/04/06 13:06:44;;;;;;;0.50;0.50;;;;;;;;;;5020359;28;20555;-70
2022/04/06 13:09:31;;;;;;;0.30;0.30;;;;;;;;;;5019870;28;20210;-70
2022/04/06 13:12:19;;;;;;;0.50;0.50;;;;;;;;;;5024213;28;20293;-70
2022/04/06 13:15:08;;;;;;;0.90;0.90;;;;;;;;;;5027148;28;20304;-70
2022/04/06 13:17:56;;;;;;;3.23;3.03;;;;;;;;;;5024377;28;20333;-70
2022/04/06 13:20:43;;;;;;;2.80;2.70;;;;;;;;;;5024894;28;20256;-70
2022/04/06 13:23:30;;;;;;;3.37;3.20;;;;;;;;;;5023212;28;20214;-70
2022/04/06 13:26:18;;;;;;;3.40;3.20;;;;;;;;;;5023816;28;20252;-70
2022/04/06 13:29:05;;;;;;;2.97;2.87;;;;;;;;;;5017270;28;20398;-70
2022/04/06 13:31:52;;;;;;;2.77;2.67;;;;;;;;;;5018602;28;20241;-70
2022/04/06 13:34:40;;;;;;;2.80;2.70;;;;;;;;;;5020779;28;20211;-70
2022/04/06 13:37:28;;;;;;;2.60;2.50;;;;;;;;;;5020850;28;20203;-71
2022/04/06 13:40:14;;;;;;;2.70;2.60;;;;;;;;;;5018422;28;20748;-70
2022/04/06 13:43:01;;;;;;;2.30;2.20;;;;;;;;;;5022151;28;20238;-70
2022/04/06 13:45:49;;;;;;;2.07;1.97;;;;;;;;;;5017856;28;20210;-70
2022/04/06 13:48:36;;;;;;;1.73;1.73;;;;;;;;;;5019446;28;20660;-70
2022/04/06 13:51:24;;;;;;;2.10;2.00;;;;;;;;;;5018936;28;20741;-70
2022/04/06 13:54:11;;;;;;;2.10;2.00;;;;;;;;;;5022119;28;20702;-70
2022/04/06 13:56:59;;;;;;;1.50;1.50;;;;;;;;;;5019273;28;20198;-70
2022/04/06 13:59:46;;;;;;;1.50;1.50;;;;;;;;;;5022076;28;20340;-70
2022/04/06 14:02:33;;;;;;;1.63;1.63;;;;;;;;;;5019068;28;20215;-70
2022/04/06 14:05:20;;;;;;;1.30;1.30;;;;;;;;;;5018079;28;20218;-69
2022/04/06 14:08:09;;;;;;;1.50;1.50;;;;;;;;;;5020851;28;20206;-69
2022/04/06 14:10:56;;;;;;;1.50;1.50;;;;;;;;;;5021872;28;20236;-69
2022/04/06 14:13:43;;;;;;;1.20;1.20;;;;;;;;;;5021485;28;20260;-69
2022/04/06 14:16:31;;;;;;;1.20;1.20;;;;;;;;;;5021734;28;20203;-69
2022/04/06 14:19:18;;;;;;;1.40;1.40;;;;;;;;;;5026493;28;20321;-70
2022/04/06 14:22:05;;;;;;;1.00;1.00;;;;;;;;;;5019562;28;20718;-70
2022/04/06 14:27:57;;;;;;;0.90;0.90;;;;;;;;;;5019498;28;20694;-70
2022/04/06 14:30:48;;;;;;;1.00;1.00;;;;;;;;;;5022584;28;20616;-70
2022/04/06 14:33:36;;;;;;;1.03;1.03;;;;;;;;;;5024092;28;20762;-70
2022/04/06 14:36:23;;;;;;;0.90;0.90;;;;;;;;;;5025720;28;20606;-70
2022/04/06 14:39:11;;;;;;;1.00;1.00;;;;;;;;;;5020791;28;20593;-70
2022/04/06 14:41:59;;;;;;;0.87;0.87;;;;;;;;;;5020137;28;20216;-70
2022/04/06 14:44:46;;;;;;;1.10;1.10;;;;;;;;;;5021375;28;20300;-70
2022/04/06 14:47:33;;;;;;;0.87;0.87;;;;;;;;;;5018517;28;20281;-70
2022/04/06 14:50:21;;;;;;;0.80;0.80;;;;;;;;;;5020301;28;20276;-70
2022/04/06 14:53:09;;;;;;;0.90;0.90;;;;;;;;;;5022175;28;20716;-70
2022/04/06 14:55:56;;;;;;;1.03;1.03;;;;;;;;;;5016000;28;20586;-70
2022/04/06 14:58:44;;;;;;;0.67;0.67;;;;;;;;;;5017266;28;20293;-70
2022/04/06 15:01:31;;;;;;;0.70;0.70;;;;;;;;;;5017979;28;20314;-70
2022/04/06 15:04:18;;;;;;;0.70;0.70;;;;;;;;;;5018758;28;20205;-70
2022/04/06 15:07:06;;;;;;;0.67;0.67;;;;;;;;;;5022521;28;20270;-70
2022/04/06 15:09:53;;;;;;;0.60;0.60;;;;;;;;;;5019075;28;20201;-70
2022/04/06 15:12:40;;;;;;;0.80;0.80;;;;;;;;;;5019773;28;20210;-70
2022/04/06 15:15:28;;;;;;;0.57;0.57;;;;;;;;;;5018809;28;20680;-70
2022/04/06 15:18:15;;;;;;;0.60;0.60;;;;;;;;;;5017441;28;20214;-70
2022/04/06 15:21:02;;;;;;;0.87;0.87;;;;;;;;;;5021167;28;20322;-69
2022/04/06 15:23:49;;;;;;;0.60;0.60;;;;;;;;;;5018847;28;20627;-69
2022/04/06 15:26:36;;;;;;;0.60;0.60;;;;;;;;;;5018706;28;20298;-69
2022/04/06 15:29:23;;;;;;;0.70;0.70;;;;;;;;;;5017815;28;20242;-70
2022/04/06 15:32:12;;;;;;;0.77;0.77;;;;;;;;;;5018307;28;20210;-70
2022/04/06 15:38:03;;;;;;;0.60;0.60;;;;;;;;;;5020365;28;20221;-70
2022/04/06 15:40:50;;;;;;;0.73;0.73;;;;;;;;;;5020285;28;20711;-70
2022/04/06 15:43:37;;;;;;;0.67;0.67;;;;;;;;;;5019314;28;20262;-69
2022/04/06 15:46:24;;;;;;;0.67;0.67;;;;;;;;;;5024977;28;20279;-70
2022/04/06 15:49:13;;;;;;;0.60;0.60;;;;;;;;;;5019889;28;20223;-70
2022/04/06 15:52:00;;;;;;;0.70;0.70;;;;;;;;;;5017071;28;20657;-70
2022/04/06 15:54:47;;;;;;;0.60;0.60;;;;;;;;;;5018915;28;20280;-69
2022/04/06 15:57:34;;;;;;;0.90;0.90;;;;;;;;;;5018712;28;20617;-70
2022/04/06 16:00:21;;;;;;;0.97;0.97;;;;;;;;;;5015358;28;20690;-69
2022/04/06 16:03:08;;;;;;;0.90;0.90;;;;;;;;;;5021047;28;20251;-70
2022/04/06 16:05:57;;;;;;;1.40;1.40;;;;;;;;;;5021079;28;20305;-70
2022/04/06 16:08:44;;;;;;;1.10;1.00;;;;;;;;;;5018445;28;20576;-70
2022/04/06 16:11:31;;;;;;;1.10;1.10;;;;;;;;;;5019813;28;20650;-70
2022/04/06 16:14:18;;;;;;;1.00;1.00;;;;;;;;;;5019102;28;20292;-69
2022/04/06 16:17:06;;;;;;;1.20;1.20;;;;;;;;;;5021130;28;20258;-70
2022/04/06 16:19:53;;;;;;;1.10;1.10;;;;;;;;;;5019334;28;20670;-70
2022/04/06 16:22:44;;;;;;;1.10;1.10;;;;;;;;;;5018843;28;20277;-70
2022/04/06 16:25:31;;;;;;;1.00;1.00;;;;;;;;;;5023242;28;20209;-70
2022/04/06 16:28:18;;;;;;;1.23;1.23;;;;;;;;;;5017757;28;20213;-69
2022/04/06 16:31:06;;;;;;;0.90;0.90;;;;;;;;;;5019313;28;20201;-69
2022/04/06 16:33:53;;;;;;;1.10;1.10;;;;;;;;;;5019790;28;20203;-69
2022/04/06 16:36:42;;;;;;;1.40;1.30;;;;;;;;;;5017468;28;20658;-72
2022/04/06 16:39:30;;;;;;;1.13;1.13;;;;;;;;;;5019379;28;20293;-70
2022/04/06 16:42:17;;;;;;;1.00;1.00;;;;;;;;;;5025704;28;20196;-70
2022/04/06 16:45:05;;;;;;;1.17;1.17;;;;;;;;;;5016860;28;20574;-70
2022/04/06 16:47:52;;;;;;;1.63;1.53;;;;;;;;;;5019370;28;20343;-70
2022/04/06 16:53:43;;;;;;;1.60;1.60;;;;;;;;;;5024764;28;20222;-70
2022/04/06 16:56:32;;;;;;;1.57;1.47;;;;;;;;;;5024129;28;20227;-70
2022/04/06 16:59:20;;;;;;;1.90;1.80;;;;;;;;;;5026392;28;20212;-70
2022/04/06 17:02:07;;;;;;;1.70;1.70;;;;;;;;;;5025383;28;20217;-69
2022/04/06 17:04:55;;;;;;;2.03;1.90;;;;;;;;;;5024058;28;20236;-70
2022/04/06 17:07:43;;;;;;;1.43;1.40;;;;;;;;;;5017988;28;20718;-70